sensor_id;sensor_type;location;lat;lon;timestamp;P1;durP1;ratioP1;P2;durP2;ratioP2
38851;SDS011;24605;50.092;9.182;2022-08-23T00:01:38;5.25;;;2.00;;
38851;SDS011;24605;50.092;9.182;2022-08-23T00:04:09;7.65;;;2.15;;
38851;SDS011;24605;50.092;9.182;2022-08-23T00:06:37;8.00;;;2.25;;
38851;SDS011;24605;50.092;9.182;2022-08-23T00:09:04;5.60;;;1.90;;
38851;SDS011;24605;50.092;9.182;2022-08-23T00:11:33;6.20;;;1.88;;
38851;SDS011;24605;50.092;9.182;2022-08-23T00:14:03;5.25;;;2.00;;
38851;SDS011;24605;50.092;9.182;2022-08-23T00:16:32;4.10;;;2.00;;
38851;SDS011;24605;50.092;9.182;2022-08-23T00:19:00;7.82;;;2.20;;
38851;SDS011;24605;50.092;9.182;2022-08-23T00:21:28;5.63;;;2.03;;
38851;SDS011;24605;50.092;9.182;2022-08-23T00:23:54;4.30;;;2.08;;
38851;SDS011;24605;50.092;9.182;2022-08-23T00:26:21;6.13;;;1.90;;
38851;SDS011;24605;50.092;9.182;2022-08-23T00:28:48;5.82;;;2.30;;
38851;SDS011;24605;50.092;9.182;2022-08-23T00:31:14;4.90;;;2.10;;
38851;SDS011;24605;50.092;9.182;2022-08-23T00:33:41;4.63;;;1.90;;
38851;SDS011;24605;50.092;9.182;2022-08-23T00:36:08;9.70;;;2.47;;
38851;SDS011;24605;50.092;9.182;2022-08-23T00:38:35;5.47;;;2.17;;
38851;SDS011;24605;50.092;9.182;2022-08-23T00:41:02;6.43;;;2.58;;
38851;SDS011;24605;50.092;9.182;2022-08-23T00:43:33;9.70;;;2.28;;
38851;SDS011;24605;50.092;9.182;2022-08-23T00:46:22;7.07;;;2.20;;
38851;SDS011;24605;50.092;9.182;2022-08-23T00:49:17;6.43;;;2.67;;
38851;SDS011;24605;50.092;9.182;2022-08-23T00:51:46;5.03;;;2.25;;
38851;SDS011;24605;50.092;9.182;2022-08-23T00:54:19;6.07;;;2.20;;
38851;SDS011;24605;50.092;9.182;2022-08-23T00:56:48;8.30;;;2.42;;
38851;SDS011;24605;50.092;9.182;2022-08-23T00:59:16;4.20;;;2.10;;
38851;SDS011;24605;50.092;9.182;2022-08-23T01:01:43;7.32;;;2.67;;
38851;SDS011;24605;50.092;9.182;2022-08-23T01:04:10;6.05;;;2.22;;
38851;SDS011;24605;50.092;9.182;2022-08-23T01:06:39;5.72;;;2.65;;
38851;SDS011;24605;50.092;9.182;2022-08-23T01:09:12;5.95;;;2.42;;
38851;SDS011;24605;50.092;9.182;2022-08-23T01:11:43;6.22;;;2.40;;
38851;SDS011;24605;50.092;9.182;2022-08-23T01:14:14;8.63;;;2.80;;
38851;SDS011;24605;50.092;9.182;2022-08-23T01:16:44;4.47;;;2.33;;
38851;SDS011;24605;50.092;9.182;2022-08-23T01:19:16;7.00;;;2.22;;
38851;SDS011;24605;50.092;9.182;2022-08-23T01:21:50;7.70;;;2.50;;
38851;SDS011;24605;50.092;9.182;2022-08-23T01:24:24;8.60;;;2.67;;
38851;SDS011;24605;50.092;9.182;2022-08-23T01:26:50;7.60;;;2.40;;
38851;SDS011;24605;50.092;9.182;2022-08-23T01:29:17;8.52;;;2.40;;
38851;SDS011;24605;50.092;9.182;2022-08-23T01:31:44;4.07;;;2.33;;
38851;SDS011;24605;50.092;9.182;2022-08-23T01:34:11;5.25;;;2.42;;
38851;SDS011;24605;50.092;9.182;2022-08-23T01:36:41;6.72;;;2.55;;
38851;SDS011;24605;50.092;9.182;2022-08-23T01:39:08;6.60;;;2.50;;
38851;SDS011;24605;50.092;9.182;2022-08-23T01:41:36;5.50;;;2.47;;
38851;SDS011;24605;50.092;9.182;2022-08-23T01:44:03;7.78;;;2.50;;
38851;SDS011;24605;50.092;9.182;2022-08-23T01:46:30;5.68;;;2.55;;
38851;SDS011;24605;50.092;9.182;2022-08-23T01:48:57;7.78;;;2.63;;
38851;SDS011;24605;50.092;9.182;2022-08-23T01:51:24;7.85;;;2.60;;
38851;SDS011;24605;50.092;9.182;2022-08-23T01:53:50;5.57;;;2.45;;
38851;SDS011;24605;50.092;9.182;2022-08-23T01:56:17;5.20;;;2.47;;
38851;SDS011;24605;50.092;9.182;2022-08-23T01:58:47;7.90;;;2.72;;
38851;SDS011;24605;50.092;9.182;2022-08-23T02:01:14;5.70;;;2.38;;
38851;SDS011;24605;50.092;9.182;2022-08-23T02:03:41;6.22;;;2.55;;
38851;SDS011;24605;50.092;9.182;2022-08-23T02:06:07;6.53;;;2.53;;
38851;SDS011;24605;50.092;9.182;2022-08-23T02:08:34;5.45;;;2.40;;
38851;SDS011;24605;50.092;9.182;2022-08-23T02:11:19;6.10;;;2.50;;
38851;SDS011;24605;50.092;9.182;2022-08-23T02:13:48;9.18;;;2.83;;
38851;SDS011;24605;50.092;9.182;2022-08-23T02:16:20;6.78;;;2.63;;
38851;SDS011;24605;50.092;9.182;2022-08-23T02:18:47;6.18;;;2.67;;
38851;SDS011;24605;50.092;9.182;2022-08-23T02:21:14;5.05;;;2.80;;
38851;SDS011;24605;50.092;9.182;2022-08-23T02:23:41;5.72;;;2.90;;
38851;SDS011;24605;50.092;9.182;2022-08-23T02:26:08;5.88;;;2.50;;
38851;SDS011;24605;50.092;9.182;2022-08-23T02:28:34;5.60;;;2.45;;
38851;SDS011;24605;50.092;9.182;2022-08-23T02:31:02;8.27;;;2.95;;
38851;SDS011;24605;50.092;9.182;2022-08-23T02:33:29;5.57;;;2.72;;
38851;SDS011;24605;50.092;9.182;2022-08-23T02:35:56;6.15;;;2.70;;
38851;SDS011;24605;50.092;9.182;2022-08-23T02:38:22;6.40;;;2.72;;
38851;SDS011;24605;50.092;9.182;2022-08-23T02:40:49;5.57;;;2.70;;
38851;SDS011;24605;50.092;9.182;2022-08-23T02:43:17;6.13;;;2.50;;
38851;SDS011;24605;50.092;9.182;2022-08-23T02:45:43;5.43;;;2.72;;
38851;SDS011;24605;50.092;9.182;2022-08-23T02:48:11;5.10;;;2.60;;
38851;SDS011;24605;50.092;9.182;2022-08-23T02:50:38;5.20;;;2.60;;
38851;SDS011;24605;50.092;9.182;2022-08-23T02:53:04;7.53;;;2.85;;
38851;SDS011;24605;50.092;9.182;2022-08-23T02:55:31;4.93;;;2.50;;
38851;SDS011;24605;50.092;9.182;2022-08-23T02:57:58;6.57;;;2.53;;
38851;SDS011;24605;50.092;9.182;2022-08-23T03:00:24;8.23;;;2.95;;
38851;SDS011;24605;50.092;9.182;2022-08-23T03:02:51;6.75;;;2.60;;
38851;SDS011;24605;50.092;9.182;2022-08-23T03:05:19;5.38;;;2.45;;
38851;SDS011;24605;50.092;9.182;2022-08-23T03:07:46;8.10;;;2.63;;
38851;SDS011;24605;50.092;9.182;2022-08-23T03:10:13;4.95;;;2.60;;
38851;SDS011;24605;50.092;9.182;2022-08-23T03:12:40;4.78;;;2.42;;
38851;SDS011;24605;50.092;9.182;2022-08-23T03:15:07;6.05;;;2.63;;
38851;SDS011;24605;50.092;9.182;2022-08-23T03:17:35;6.43;;;2.78;;
38851;SDS011;24605;50.092;9.182;2022-08-23T03:20:02;5.88;;;2.45;;
38851;SDS011;24605;50.092;9.182;2022-08-23T03:22:31;7.10;;;2.70;;
38851;SDS011;24605;50.092;9.182;2022-08-23T03:24:57;5.63;;;2.55;;
38851;SDS011;24605;50.092;9.182;2022-08-23T03:27:24;5.80;;;2.83;;
38851;SDS011;24605;50.092;9.182;2022-08-23T03:29:50;5.53;;;2.60;;
38851;SDS011;24605;50.092;9.182;2022-08-23T03:32:17;5.82;;;2.75;;
38851;SDS011;24605;50.092;9.182;2022-08-23T03:34:44;4.50;;;2.80;;
38851;SDS011;24605;50.092;9.182;2022-08-23T03:37:10;8.00;;;2.70;;
38851;SDS011;24605;50.092;9.182;2022-08-23T03:39:38;6.75;;;2.75;;
38851;SDS011;24605;50.092;9.182;2022-08-23T03:42:05;8.57;;;2.60;;
38851;SDS011;24605;50.092;9.182;2022-08-23T03:44:33;7.72;;;2.70;;
38851;SDS011;24605;50.092;9.182;2022-08-23T03:46:59;5.70;;;2.58;;
38851;SDS011;24605;50.092;9.182;2022-08-23T03:49:26;4.78;;;2.45;;
38851;SDS011;24605;50.092;9.182;2022-08-23T03:51:53;8.10;;;2.60;;
38851;SDS011;24605;50.092;9.182;2022-08-23T03:54:20;6.07;;;2.72;;
38851;SDS011;24605;50.092;9.182;2022-08-23T03:56:51;5.13;;;2.70;;
38851;SDS011;24605;50.092;9.182;2022-08-23T03:59:19;6.70;;;3.13;;
38851;SDS011;24605;50.092;9.182;2022-08-23T04:01:46;7.32;;;3.13;;
38851;SDS011;24605;50.092;9.182;2022-08-23T04:04:12;10.23;;;2.75;;
38851;SDS011;24605;50.092;9.182;2022-08-23T04:06:39;5.03;;;2.90;;
38851;SDS011;24605;50.092;9.182;2022-08-23T04:09:05;6.00;;;2.55;;
38851;SDS011;24605;50.092;9.182;2022-08-23T04:11:32;8.05;;;2.85;;
38851;SDS011;24605;50.092;9.182;2022-08-23T04:14:00;5.85;;;3.05;;
38851;SDS011;24605;50.092;9.182;2022-08-23T04:16:26;8.23;;;3.00;;
38851;SDS011;24605;50.092;9.182;2022-08-23T04:18:57;5.65;;;2.60;;
38851;SDS011;24605;50.092;9.182;2022-08-23T04:21:23;5.78;;;2.75;;
38851;SDS011;24605;50.092;9.182;2022-08-23T04:23:50;5.43;;;2.78;;
38851;SDS011;24605;50.092;9.182;2022-08-23T04:26:16;7.50;;;2.70;;
38851;SDS011;24605;50.092;9.182;2022-08-23T04:28:43;6.70;;;2.70;;
38851;SDS011;24605;50.092;9.182;2022-08-23T04:31:11;4.35;;;2.70;;
38851;SDS011;24605;50.092;9.182;2022-08-23T04:33:38;7.65;;;3.05;;
38851;SDS011;24605;50.092;9.182;2022-08-23T04:36:05;7.85;;;3.08;;
38851;SDS011;24605;50.092;9.182;2022-08-23T04:38:32;6.43;;;2.55;;
38851;SDS011;24605;50.092;9.182;2022-08-23T04:40:58;6.47;;;2.97;;
38851;SDS011;24605;50.092;9.182;2022-08-23T04:43:42;4.90;;;2.60;;
38851;SDS011;24605;50.092;9.182;2022-08-23T04:46:09;8.80;;;2.95;;
38851;SDS011;24605;50.092;9.182;2022-08-23T04:48:40;5.20;;;2.60;;
38851;SDS011;24605;50.092;9.182;2022-08-23T04:51:07;5.90;;;2.65;;
38851;SDS011;24605;50.092;9.182;2022-08-23T04:53:33;6.78;;;2.72;;
38851;SDS011;24605;50.092;9.182;2022-08-23T04:56:02;6.75;;;2.83;;
38851;SDS011;24605;50.092;9.182;2022-08-23T04:58:30;5.65;;;2.70;;
38851;SDS011;24605;50.092;9.182;2022-08-23T05:00:58;7.28;;;2.70;;
38851;SDS011;24605;50.092;9.182;2022-08-23T05:03:27;5.80;;;3.00;;
38851;SDS011;24605;50.092;9.182;2022-08-23T05:05:56;5.72;;;2.55;;
38851;SDS011;24605;50.092;9.182;2022-08-23T05:08:23;6.47;;;2.75;;
38851;SDS011;24605;50.092;9.182;2022-08-23T05:10:50;5.20;;;2.70;;
38851;SDS011;24605;50.092;9.182;2022-08-23T05:13:16;5.43;;;2.72;;
38851;SDS011;24605;50.092;9.182;2022-08-23T05:15:43;7.00;;;2.65;;
38851;SDS011;24605;50.092;9.182;2022-08-23T05:18:09;6.70;;;2.75;;
38851;SDS011;24605;50.092;9.182;2022-08-23T05:20:38;7.70;;;3.03;;
38851;SDS011;24605;50.092;9.182;2022-08-23T05:23:05;9.13;;;2.70;;
38851;SDS011;24605;50.092;9.182;2022-08-23T05:25:31;6.10;;;2.60;;
38851;SDS011;24605;50.092;9.182;2022-08-23T05:28:12;4.95;;;2.42;;
38851;SDS011;24605;50.092;9.182;2022-08-23T05:30:38;8.20;;;2.85;;
38851;SDS011;24605;50.092;9.182;2022-08-23T05:33:05;4.47;;;2.30;;
38851;SDS011;24605;50.092;9.182;2022-08-23T05:35:31;3.80;;;2.20;;
38851;SDS011;24605;50.092;9.182;2022-08-23T05:37:59;6.40;;;2.45;;
38851;SDS011;24605;50.092;9.182;2022-08-23T05:40:26;5.05;;;2.47;;
38851;SDS011;24605;50.092;9.182;2022-08-23T05:42:53;5.10;;;2.33;;
38851;SDS011;24605;50.092;9.182;2022-08-23T05:45:20;5.30;;;2.20;;
38851;SDS011;24605;50.092;9.182;2022-08-23T05:47:46;4.93;;;2.17;;
38851;SDS011;24605;50.092;9.182;2022-08-23T05:50:13;6.18;;;2.65;;
38851;SDS011;24605;50.092;9.182;2022-08-23T05:52:39;7.45;;;2.17;;
38851;SDS011;24605;50.092;9.182;2022-08-23T05:55:07;8.52;;;2.53;;
38851;SDS011;24605;50.092;9.182;2022-08-23T05:57:34;15.82;;;2.67;;
38851;SDS011;24605;50.092;9.182;2022-08-23T06:00:02;4.13;;;1.88;;
38851;SDS011;24605;50.092;9.182;2022-08-23T06:02:31;6.00;;;2.33;;
38851;SDS011;24605;50.092;9.182;2022-08-23T06:04:57;3.97;;;2.13;;
38851;SDS011;24605;50.092;9.182;2022-08-23T06:07:24;3.70;;;2.22;;
38851;SDS011;24605;50.092;9.182;2022-08-23T06:09:50;5.05;;;2.50;;
38851;SDS011;24605;50.092;9.182;2022-08-23T06:12:20;5.60;;;2.28;;
38851;SDS011;24605;50.092;9.182;2022-08-23T06:14:46;6.20;;;2.10;;
38851;SDS011;24605;50.092;9.182;2022-08-23T06:17:13;5.22;;;2.40;;
38851;SDS011;24605;50.092;9.182;2022-08-23T06:19:40;6.13;;;2.38;;
38851;SDS011;24605;50.092;9.182;2022-08-23T06:22:06;6.63;;;2.47;;
38851;SDS011;24605;50.092;9.182;2022-08-23T06:24:33;5.57;;;2.03;;
38851;SDS011;24605;50.092;9.182;2022-08-23T06:27:00;6.97;;;2.40;;
38851;SDS011;24605;50.092;9.182;2022-08-23T06:29:27;5.90;;;2.10;;
38851;SDS011;24605;50.092;9.182;2022-08-23T06:31:54;4.95;;;2.25;;
38851;SDS011;24605;50.092;9.182;2022-08-23T06:34:21;6.32;;;1.95;;
38851;SDS011;24605;50.092;9.182;2022-08-23T06:36:50;5.45;;;2.45;;
38851;SDS011;24605;50.092;9.182;2022-08-23T06:39:19;8.18;;;2.30;;
38851;SDS011;24605;50.092;9.182;2022-08-23T06:41:48;4.82;;;2.08;;
38851;SDS011;24605;50.092;9.182;2022-08-23T06:44:15;4.43;;;2.33;;
38851;SDS011;24605;50.092;9.182;2022-08-23T06:46:44;5.55;;;1.90;;
38851;SDS011;24605;50.092;9.182;2022-08-23T06:49:12;5.47;;;2.10;;
38851;SDS011;24605;50.092;9.182;2022-08-23T06:51:39;4.72;;;2.00;;
38851;SDS011;24605;50.092;9.182;2022-08-23T06:54:08;6.50;;;2.20;;
38851;SDS011;24605;50.092;9.182;2022-08-23T06:56:37;5.07;;;1.90;;
38851;SDS011;24605;50.092;9.182;2022-08-23T06:59:05;4.35;;;1.90;;
38851;SDS011;24605;50.092;9.182;2022-08-23T07:01:33;4.85;;;1.98;;
38851;SDS011;24605;50.092;9.182;2022-08-23T07:04:04;3.92;;;2.00;;
38851;SDS011;24605;50.092;9.182;2022-08-23T07:06:33;5.57;;;1.95;;
38851;SDS011;24605;50.092;9.182;2022-08-23T07:09:00;5.32;;;2.00;;
38851;SDS011;24605;50.092;9.182;2022-08-23T07:11:28;3.53;;;1.70;;
38851;SDS011;24605;50.092;9.182;2022-08-23T07:13:57;5.75;;;1.98;;
38851;SDS011;24605;50.092;9.182;2022-08-23T07:16:25;5.50;;;1.95;;
38851;SDS011;24605;50.092;9.182;2022-08-23T07:18:56;7.07;;;1.70;;
38851;SDS011;24605;50.092;9.182;2022-08-23T07:21:24;4.75;;;1.80;;
38851;SDS011;24605;50.092;9.182;2022-08-23T07:23:51;5.63;;;1.88;;
38851;SDS011;24605;50.092;9.182;2022-08-23T07:26:18;5.38;;;1.92;;
38851;SDS011;24605;50.092;9.182;2022-08-23T07:28:45;5.75;;;1.80;;
38851;SDS011;24605;50.092;9.182;2022-08-23T07:31:13;7.43;;;1.88;;
38851;SDS011;24605;50.092;9.182;2022-08-23T07:33:42;4.78;;;1.90;;
38851;SDS011;24605;50.092;9.182;2022-08-23T07:36:11;4.80;;;1.80;;
38851;SDS011;24605;50.092;9.182;2022-08-23T07:38:41;8.30;;;2.05;;
38851;SDS011;24605;50.092;9.182;2022-08-23T07:41:08;4.45;;;1.65;;
38851;SDS011;24605;50.092;9.182;2022-08-23T07:43:35;5.38;;;1.88;;
38851;SDS011;24605;50.092;9.182;2022-08-23T07:46:03;3.55;;;1.70;;
38851;SDS011;24605;50.092;9.182;2022-08-23T07:48:29;4.20;;;1.60;;
38851;SDS011;24605;50.092;9.182;2022-08-23T07:50:58;4.03;;;1.80;;
38851;SDS011;24605;50.092;9.182;2022-08-23T07:53:25;4.50;;;2.05;;
38851;SDS011;24605;50.092;9.182;2022-08-23T07:55:54;5.88;;;1.70;;
38851;SDS011;24605;50.092;9.182;2022-08-23T07:58:21;4.13;;;1.85;;
38851;SDS011;24605;50.092;9.182;2022-08-23T08:00:49;6.80;;;1.70;;
38851;SDS011;24605;50.092;9.182;2022-08-23T08:03:17;5.00;;;1.77;;
38851;SDS011;24605;50.092;9.182;2022-08-23T08:05:44;7.35;;;2.00;;
38851;SDS011;24605;50.092;9.182;2022-08-23T08:08:11;3.80;;;1.75;;
38851;SDS011;24605;50.092;9.182;2022-08-23T08:10:38;6.00;;;1.77;;
38851;SDS011;24605;50.092;9.182;2022-08-23T08:13:09;4.13;;;1.55;;
38851;SDS011;24605;50.092;9.182;2022-08-23T08:15:39;3.78;;;1.42;;
38851;SDS011;24605;50.092;9.182;2022-08-23T08:18:07;5.07;;;1.70;;
38851;SDS011;24605;50.092;9.182;2022-08-23T08:20:34;3.85;;;1.70;;
38851;SDS011;24605;50.092;9.182;2022-08-23T08:23:01;5.03;;;1.80;;
38851;SDS011;24605;50.092;9.182;2022-08-23T08:25:28;4.90;;;1.50;;
38851;SDS011;24605;50.092;9.182;2022-08-23T08:27:58;4.15;;;1.67;;
38851;SDS011;24605;50.092;9.182;2022-08-23T08:30:26;4.28;;;1.60;;
38851;SDS011;24605;50.092;9.182;2022-08-23T08:32:54;4.90;;;1.42;;
38851;SDS011;24605;50.092;9.182;2022-08-23T08:35:20;7.80;;;1.75;;
38851;SDS011;24605;50.092;9.182;2022-08-23T08:37:47;5.28;;;1.70;;
38851;SDS011;24605;50.092;9.182;2022-08-23T08:40:14;4.20;;;1.58;;
38851;SDS011;24605;50.092;9.182;2022-08-23T08:42:52;4.72;;;1.73;;
38851;SDS011;24605;50.092;9.182;2022-08-23T08:45:31;5.10;;;1.70;;
38851;SDS011;24605;50.092;9.182;2022-08-23T08:48:12;3.42;;;1.52;;
38851;SDS011;24605;50.092;9.182;2022-08-23T08:50:42;4.43;;;1.70;;
38851;SDS011;24605;50.092;9.182;2022-08-23T08:53:14;5.00;;;1.60;;
38851;SDS011;24605;50.092;9.182;2022-08-23T08:55:45;4.57;;;1.63;;
38851;SDS011;24605;50.092;9.182;2022-08-23T08:58:16;4.22;;;1.60;;
38851;SDS011;24605;50.092;9.182;2022-08-23T09:00:47;6.53;;;1.60;;
38851;SDS011;24605;50.092;9.182;2022-08-23T09:03:15;5.28;;;1.75;;
38851;SDS011;24605;50.092;9.182;2022-08-23T09:05:47;6.70;;;2.10;;
38851;SDS011;24605;50.092;9.182;2022-08-23T09:08:24;3.83;;;1.42;;
38851;SDS011;24605;50.092;9.182;2022-08-23T09:11:06;7.43;;;1.65;;
38851;SDS011;24605;50.092;9.182;2022-08-23T09:13:47;6.40;;;1.65;;
38851;SDS011;24605;50.092;9.182;2022-08-23T09:16:34;4.30;;;1.67;;
38851;SDS011;24605;50.092;9.182;2022-08-23T09:19:11;4.38;;;1.70;;
38851;SDS011;24605;50.092;9.182;2022-08-23T09:21:40;3.22;;;1.42;;
38851;SDS011;24605;50.092;9.182;2022-08-23T09:24:10;6.45;;;1.90;;
38851;SDS011;24605;50.092;9.182;2022-08-23T09:26:38;4.93;;;1.85;;
38851;SDS011;24605;50.092;9.182;2022-08-23T09:29:17;4.28;;;1.85;;
38851;SDS011;24605;50.092;9.182;2022-08-23T09:31:48;4.60;;;1.65;;
38851;SDS011;24605;50.092;9.182;2022-08-23T09:34:18;4.88;;;1.65;;
38851;SDS011;24605;50.092;9.182;2022-08-23T09:36:46;4.97;;;1.70;;
38851;SDS011;24605;50.092;9.182;2022-08-23T09:39:24;5.68;;;1.80;;
38851;SDS011;24605;50.092;9.182;2022-08-23T09:41:54;4.35;;;1.73;;
38851;SDS011;24605;50.092;9.182;2022-08-23T09:44:33;7.72;;;1.75;;
38851;SDS011;24605;50.092;9.182;2022-08-23T09:47:11;3.88;;;1.75;;
38851;SDS011;24605;50.092;9.182;2022-08-23T09:49:41;4.20;;;1.45;;
38851;SDS011;24605;50.092;9.182;2022-08-23T09:52:10;3.83;;;1.38;;
38851;SDS011;24605;50.092;9.182;2022-08-23T09:54:43;4.25;;;1.60;;
38851;SDS011;24605;50.092;9.182;2022-08-23T09:57:21;8.55;;;2.28;;
38851;SDS011;24605;50.092;9.182;2022-08-23T09:59:50;4.75;;;1.70;;
38851;SDS011;24605;50.092;9.182;2022-08-23T10:02:24;4.40;;;1.63;;
38851;SDS011;24605;50.092;9.182;2022-08-23T10:04:55;4.35;;;1.60;;
38851;SDS011;24605;50.092;9.182;2022-08-23T10:07:26;5.82;;;1.60;;
38851;SDS011;24605;50.092;9.182;2022-08-23T10:09:55;6.38;;;1.70;;
38851;SDS011;24605;50.092;9.182;2022-08-23T10:12:39;5.93;;;1.92;;
38851;SDS011;24605;50.092;9.182;2022-08-23T10:15:06;4.35;;;1.80;;
38851;SDS011;24605;50.092;9.182;2022-08-23T10:17:36;3.88;;;1.55;;
38851;SDS011;24605;50.092;9.182;2022-08-23T10:20:12;4.28;;;1.60;;
38851;SDS011;24605;50.092;9.182;2022-08-23T10:22:49;4.28;;;1.58;;
38851;SDS011;24605;50.092;9.182;2022-08-23T10:25:25;3.92;;;1.67;;
38851;SDS011;24605;50.092;9.182;2022-08-23T10:28:00;4.07;;;1.70;;
38851;SDS011;24605;50.092;9.182;2022-08-23T10:30:55;8.55;;;1.75;;
38851;SDS011;24605;50.092;9.182;2022-08-23T10:33:31;4.30;;;1.50;;
38851;SDS011;24605;50.092;9.182;2022-08-23T10:36:08;4.78;;;1.60;;
38851;SDS011;24605;50.092;9.182;2022-08-23T10:38:41;4.38;;;1.60;;
38851;SDS011;24605;50.092;9.182;2022-08-23T10:41:14;5.13;;;1.77;;
38851;SDS011;24605;50.092;9.182;2022-08-23T10:43:51;3.92;;;1.70;;
38851;SDS011;24605;50.092;9.182;2022-08-23T10:46:25;4.13;;;1.30;;
38851;SDS011;24605;50.092;9.182;2022-08-23T10:48:57;3.70;;;1.65;;
38851;SDS011;24605;50.092;9.182;2022-08-23T10:51:25;5.00;;;1.42;;
38851;SDS011;24605;50.092;9.182;2022-08-23T10:53:56;4.43;;;1.70;;
38851;SDS011;24605;50.092;9.182;2022-08-23T10:56:26;5.28;;;1.60;;
38851;SDS011;24605;50.092;9.182;2022-08-23T10:58:54;5.30;;;1.80;;
38851;SDS011;24605;50.092;9.182;2022-08-23T11:01:24;6.95;;;2.22;;
38851;SDS011;24605;50.092;9.182;2022-08-23T11:04:02;7.60;;;1.75;;
38851;SDS011;24605;50.092;9.182;2022-08-23T11:09:30;5.45;;;1.90;;
38851;SDS011;24605;50.092;9.182;2022-08-23T11:12:12;5.40;;;1.95;;
38851;SDS011;24605;50.092;9.182;2022-08-23T11:14:57;5.95;;;2.03;;
38851;SDS011;24605;50.092;9.182;2022-08-23T11:17:36;6.25;;;1.85;;
38851;SDS011;24605;50.092;9.182;2022-08-23T11:20:11;5.90;;;2.05;;
38851;SDS011;24605;50.092;9.182;2022-08-23T11:25:38;3.70;;;1.75;;
38851;SDS011;24605;50.092;9.182;2022-08-23T11:31:18;3.92;;;1.70;;
38851;SDS011;24605;50.092;9.182;2022-08-23T11:33:49;4.60;;;1.73;;
38851;SDS011;24605;50.092;9.182;2022-08-23T11:36:20;7.80;;;2.22;;
38851;SDS011;24605;50.092;9.182;2022-08-23T11:44:35;4.47;;;1.92;;
38851;SDS011;24605;50.092;9.182;2022-08-23T11:47:05;5.05;;;1.83;;
38851;SDS011;24605;50.092;9.182;2022-08-23T11:49:38;3.38;;;1.70;;
38851;SDS011;24605;50.092;9.182;2022-08-23T11:52:26;5.53;;;1.55;;
38851;SDS011;24605;50.092;9.182;2022-08-23T11:55:06;5.80;;;1.70;;
38851;SDS011;24605;50.092;9.182;2022-08-23T11:57:49;3.70;;;1.87;;
38851;SDS011;24605;50.092;9.182;2022-08-23T12:00:23;4.65;;;1.88;;
38851;SDS011;24605;50.092;9.182;2022-08-23T12:03:01;6.20;;;1.85;;
38851;SDS011;24605;50.092;9.182;2022-08-23T12:05:42;3.67;;;1.65;;
38851;SDS011;24605;50.092;9.182;2022-08-23T12:08:47;4.77;;;1.50;;
38851;SDS011;24605;50.092;9.182;2022-08-23T12:11:17;4.97;;;1.90;;
38851;SDS011;24605;50.092;9.182;2022-08-23T12:13:50;4.43;;;1.70;;
38851;SDS011;24605;50.092;9.182;2022-08-23T12:19:06;3.95;;;1.77;;
38851;SDS011;24605;50.092;9.182;2022-08-23T12:21:45;6.65;;;1.77;;
38851;SDS011;24605;50.092;9.182;2022-08-23T12:24:20;3.40;;;1.80;;
38851;SDS011;24605;50.092;9.182;2022-08-23T12:27:02;5.22;;;1.92;;
38851;SDS011;24605;50.092;9.182;2022-08-23T12:29:37;4.80;;;1.65;;
38851;SDS011;24605;50.092;9.182;2022-08-23T12:32:14;5.22;;;1.70;;
38851;SDS011;24605;50.092;9.182;2022-08-23T12:34:53;6.57;;;2.08;;
38851;SDS011;24605;50.092;9.182;2022-08-23T12:37:35;4.50;;;1.98;;
38851;SDS011;24605;50.092;9.182;2022-08-23T12:40:11;3.30;;;1.42;;
38851;SDS011;24605;50.092;9.182;2022-08-23T12:42:41;4.35;;;1.88;;
38851;SDS011;24605;50.092;9.182;2022-08-23T12:45:11;6.03;;;1.85;;
38851;SDS011;24605;50.092;9.182;2022-08-23T12:47:40;6.15;;;1.60;;
38851;SDS011;24605;50.092;9.182;2022-08-23T12:50:14;3.35;;;1.50;;
38851;SDS011;24605;50.092;9.182;2022-08-23T12:52:53;4.38;;;1.90;;
38851;SDS011;24605;50.092;9.182;2022-08-23T12:55:21;5.45;;;1.90;;
38851;SDS011;24605;50.092;9.182;2022-08-23T12:57:50;3.50;;;1.63;;
38851;SDS011;24605;50.092;9.182;2022-08-23T13:00:21;7.20;;;1.80;;
38851;SDS011;24605;50.092;9.182;2022-08-23T13:02:54;4.88;;;1.63;;
38851;SDS011;24605;50.092;9.182;2022-08-23T13:05:29;4.13;;;1.63;;
38851;SDS011;24605;50.092;9.182;2022-08-23T13:08:02;4.65;;;1.80;;
38851;SDS011;24605;50.092;9.182;2022-08-23T13:10:31;4.15;;;1.65;;
38851;SDS011;24605;50.092;9.182;2022-08-23T13:12:59;5.90;;;2.00;;
38851;SDS011;24605;50.092;9.182;2022-08-23T13:15:43;5.85;;;1.90;;
38851;SDS011;24605;50.092;9.182;2022-08-23T13:18:22;4.30;;;1.55;;
38851;SDS011;24605;50.092;9.182;2022-08-23T13:23:48;4.97;;;1.90;;
38851;SDS011;24605;50.092;9.182;2022-08-23T13:26:35;5.10;;;1.70;;
38851;SDS011;24605;50.092;9.182;2022-08-23T13:29:08;3.83;;;1.80;;
38851;SDS011;24605;50.092;9.182;2022-08-23T13:31:50;2.83;;;1.45;;
38851;SDS011;24605;50.092;9.182;2022-08-23T13:34:33;4.53;;;1.70;;
38851;SDS011;24605;50.092;9.182;2022-08-23T13:37:03;4.38;;;1.92;;
38851;SDS011;24605;50.092;9.182;2022-08-23T13:39:35;4.13;;;1.70;;
38851;SDS011;24605;50.092;9.182;2022-08-23T13:42:02;5.35;;;1.90;;
38851;SDS011;24605;50.092;9.182;2022-08-23T13:44:29;5.53;;;1.88;;
38851;SDS011;24605;50.092;9.182;2022-08-23T13:46:56;4.75;;;1.83;;
38851;SDS011;24605;50.092;9.182;2022-08-23T13:49:23;3.88;;;1.80;;
38851;SDS011;24605;50.092;9.182;2022-08-23T13:52:03;3.72;;;1.70;;
38851;SDS011;24605;50.092;9.182;2022-08-23T13:54:35;5.13;;;1.92;;
38851;SDS011;24605;50.092;9.182;2022-08-23T13:57:03;6.43;;;1.77;;
38851;SDS011;24605;50.092;9.182;2022-08-23T13:59:33;4.95;;;1.60;;
38851;SDS011;24605;50.092;9.182;2022-08-23T14:02:05;6.55;;;1.85;;
38851;SDS011;24605;50.092;9.182;2022-08-23T14:04:35;3.33;;;1.70;;
38851;SDS011;24605;50.092;9.182;2022-08-23T14:07:02;4.25;;;1.75;;
38851;SDS011;24605;50.092;9.182;2022-08-23T14:09:29;3.70;;;1.80;;
38851;SDS011;24605;50.092;9.182;2022-08-23T14:11:59;3.50;;;1.77;;
38851;SDS011;24605;50.092;9.182;2022-08-23T14:14:28;6.07;;;2.05;;
38851;SDS011;24605;50.092;9.182;2022-08-23T14:16:56;4.28;;;1.50;;
38851;SDS011;24605;50.092;9.182;2022-08-23T14:19:23;5.47;;;1.70;;
38851;SDS011;24605;50.092;9.182;2022-08-23T14:21:50;5.68;;;2.17;;
38851;SDS011;24605;50.092;9.182;2022-08-23T14:24:17;5.78;;;2.05;;
38851;SDS011;24605;50.092;9.182;2022-08-23T14:26:44;4.88;;;2.10;;
38851;SDS011;24605;50.092;9.182;2022-08-23T14:29:12;5.18;;;1.80;;
38851;SDS011;24605;50.092;9.182;2022-08-23T14:31:39;5.72;;;2.00;;
38851;SDS011;24605;50.092;9.182;2022-08-23T14:34:05;4.93;;;1.80;;
38851;SDS011;24605;50.092;9.182;2022-08-23T14:36:32;6.43;;;2.10;;
38851;SDS011;24605;50.092;9.182;2022-08-23T14:38:58;6.22;;;1.77;;
38851;SDS011;24605;50.092;9.182;2022-08-23T14:41:25;3.70;;;1.63;;
38851;SDS011;24605;50.092;9.182;2022-08-23T14:43:52;5.88;;;1.90;;
38851;SDS011;24605;50.092;9.182;2022-08-23T14:46:20;7.20;;;2.22;;
38851;SDS011;24605;50.092;9.182;2022-08-23T14:48:47;4.97;;;2.10;;
38851;SDS011;24605;50.092;9.182;2022-08-23T14:51:17;5.22;;;1.90;;
38851;SDS011;24605;50.092;9.182;2022-08-23T14:53:50;4.20;;;1.90;;
38851;SDS011;24605;50.092;9.182;2022-08-23T14:56:17;3.63;;;1.90;;
38851;SDS011;24605;50.092;9.182;2022-08-23T14:58:43;3.15;;;1.70;;
38851;SDS011;24605;50.092;9.182;2022-08-23T15:01:10;4.35;;;1.58;;
38851;SDS011;24605;50.092;9.182;2022-08-23T15:03:39;5.20;;;1.50;;
38851;SDS011;24605;50.092;9.182;2022-08-23T15:06:06;5.50;;;1.98;;
38851;SDS011;24605;50.092;9.182;2022-08-23T15:08:33;7.13;;;1.88;;
38851;SDS011;24605;50.092;9.182;2022-08-23T15:10:59;3.85;;;1.70;;
38851;SDS011;24605;50.092;9.182;2022-08-23T15:13:28;3.63;;;1.67;;
38851;SDS011;24605;50.092;9.182;2022-08-23T15:15:55;4.78;;;1.58;;
38851;SDS011;24605;50.092;9.182;2022-08-23T15:18:22;4.95;;;1.83;;
38851;SDS011;24605;50.092;9.182;2022-08-23T15:20:50;5.20;;;1.98;;
38851;SDS011;24605;50.092;9.182;2022-08-23T15:23:17;4.05;;;1.77;;
38851;SDS011;24605;50.092;9.182;2022-08-23T15:25:44;3.83;;;1.63;;